createdAt,value
2018-10-04T00:02:13.689Z,11.20
2018-10-04T00:04:41.195Z,10.80
2018-10-04T00:07:08.782Z,12.20
2018-10-04T00:09:36.266Z,11.43
2018-10-04T00:12:04.702Z,11.53
2018-10-04T00:14:33.255Z,11.95
2018-10-04T00:17:03.014Z,12.00
2018-10-04T00:19:30.572Z,12.68
2018-10-04T00:21:58.109Z,13.15
2018-10-04T00:24:25.736Z,12.75
2018-10-04T00:26:53.252Z,12.80
2018-10-04T00:29:20.885Z,13.28
2018-10-04T00:31:48.430Z,12.60
2018-10-04T00:34:15.926Z,12.95
2018-10-04T00:36:43.507Z,12.03
2018-10-04T00:39:10.980Z,12.37
2018-10-04T00:41:38.548Z,12.43
2018-10-04T00:44:06.826Z,12.45
2018-10-04T00:46:34.350Z,11.95
2018-10-04T00:49:01.906Z,11.83
2018-10-04T00:51:29.453Z,11.53
2018-10-04T00:54:00.110Z,12.70
2018-10-04T00:56:31.579Z,12.35
2018-10-04T00:59:02.538Z,11.90
2018-10-04T01:01:31.092Z,11.95
2018-10-04T01:04:07.634Z,12.20
2018-10-04T01:06:35.239Z,12.40
2018-10-04T01:09:04.577Z,11.75
2018-10-04T01:11:34.983Z,11.80
2018-10-04T01:14:07.009Z,11.55
2018-10-04T01:16:37.369Z,11.88
2018-10-04T01:19:07.864Z,10.98
2018-10-04T01:21:35.344Z,12.10
2018-10-04T01:24:02.936Z,11.12
2018-10-04T01:26:30.445Z,11.65
2018-10-04T01:28:58.059Z,12.58
2018-10-04T01:31:33.551Z,11.75
2018-10-04T01:34:15.021Z,11.35
2018-10-04T01:36:43.994Z,12.13
2018-10-04T01:39:12.526Z,12.23
2018-10-04T01:41:40.006Z,10.68
2018-10-04T01:44:07.640Z,12.40
2018-10-04T01:46:35.163Z,11.95
2018-10-04T01:49:03.371Z,11.63
2018-10-04T01:51:34.829Z,10.48
2018-10-04T01:54:08.228Z,12.43
2018-10-04T01:56:35.727Z,10.93
2018-10-04T01:59:04.159Z,12.40
2018-10-04T02:01:33.937Z,12.15
2018-10-04T02:04:06.418Z,11.50
2018-10-04T02:06:36.807Z,11.85
2018-10-04T02:09:07.332Z,12.35
2018-10-04T02:11:34.841Z,12.53
2018-10-04T02:14:13.003Z,11.22
2018-10-04T02:20:30.279Z,12.63
2018-10-04T02:23:02.683Z,11.22
2018-10-04T02:25:53.931Z,12.93
2018-10-04T02:28:45.427Z,13.28
2018-10-04T02:37:45.865Z,11.70
2018-10-04T02:40:46.741Z,12.85
2018-10-04T02:43:48.565Z,11.73
2018-10-04T02:46:53.932Z,10.98
2018-10-04T02:49:38.546Z,12.05
2018-10-04T02:56:19.462Z,11.20
2018-10-04T02:59:01.749Z,11.50
2018-10-04T03:10:37.455Z,12.05
2018-10-04T03:13:06.633Z,10.25
2018-10-04T03:15:56.399Z,11.30
2018-10-04T03:28:35.766Z,10.85
2018-10-04T03:34:39.131Z,10.30
2018-10-04T03:40:08.360Z,11.48
2018-10-04T03:46:10.263Z,10.10
2018-10-04T03:49:01.612Z,10.45
2018-10-04T03:54:09.122Z,11.50
2018-10-04T03:56:36.729Z,11.00
2018-10-04T03:59:04.530Z,9.90
2018-10-04T04:01:32.066Z,10.60
2018-10-04T04:03:59.637Z,10.30
2018-10-04T04:06:27.152Z,10.82
2018-10-04T04:08:54.628Z,10.20
2018-10-04T04:11:22.926Z,11.45
2018-10-04T04:13:50.413Z,10.72
2018-10-04T04:16:17.923Z,9.90
2018-10-04T04:18:45.466Z,9.80
2018-10-04T04:21:12.931Z,10.13
2018-10-04T04:23:47.927Z,10.43
2018-10-04T04:26:15.411Z,11.48
2018-10-04T04:28:42.930Z,11.70
2018-10-04T04:31:10.424Z,11.55
2018-10-04T04:33:38.005Z,11.40
2018-10-04T04:36:05.531Z,10.85
2018-10-04T04:38:33.114Z,10.15
2018-10-04T04:41:00.809Z,11.30
2018-10-04T04:43:28.556Z,10.85
2018-10-04T04:45:56.025Z,10.75
2018-10-04T04:48:23.563Z,10.10
2018-10-04T04:50:51.059Z,10.58
2018-10-04T04:53:32.152Z,10.25
2018-10-04T04:55:59.645Z,10.28
2018-10-04T04:58:27.202Z,10.38
2018-10-04T05:00:54.778Z,10.38
2018-10-04T05:03:22.365Z,10.23
2018-10-04T05:05:49.974Z,10.45
2018-10-04T05:08:17.566Z,9.50
2018-10-04T05:10:45.109Z,11.20
2018-10-04T05:13:12.579Z,10.70
2018-10-04T05:15:40.219Z,11.88
2018-10-04T05:18:07.715Z,10.65
2018-10-04T05:20:35.310Z,11.30
2018-10-04T05:23:02.823Z,9.73
2018-10-04T05:25:30.913Z,10.38
2018-10-04T05:27:59.224Z,9.58
2018-10-04T05:30:48.508Z,9.80
2018-10-04T05:33:16.022Z,9.90
2018-10-04T05:35:43.638Z,10.98
2018-10-04T05:38:11.220Z,10.80
2018-10-04T05:40:38.750Z,10.70
2018-10-04T05:43:06.505Z,11.63
2018-10-04T05:45:34.108Z,9.90
2018-10-04T05:48:01.849Z,10.00
2018-10-04T05:50:29.326Z,10.20
2018-10-04T05:52:56.934Z,11.30
2018-10-04T05:55:24.361Z,9.68
2018-10-04T05:57:51.918Z,10.82
2018-10-04T06:00:38.546Z,10.23
2018-10-04T06:03:06.266Z,11.78
2018-10-04T06:05:33.978Z,11.38
2018-10-04T06:08:01.808Z,10.78
2018-10-04T06:10:29.793Z,12.78
2018-10-04T06:12:57.370Z,9.55
2018-10-04T06:15:25.098Z,10.88
2018-10-04T06:17:52.631Z,12.00
2018-10-04T06:20:20.177Z,12.90
2018-10-04T06:22:47.737Z,14.05
2018-10-04T06:25:15.286Z,14.33
2018-10-04T06:27:42.843Z,14.98
2018-10-04T06:30:10.842Z,16.75
2018-10-04T06:32:38.407Z,15.72
2018-10-04T06:35:06.053Z,16.62
2018-10-04T06:37:33.575Z,17.02
2018-10-04T06:40:01.127Z,17.23
2018-10-04T06:42:28.757Z,16.52
2018-10-04T06:44:56.246Z,16.97
2018-10-04T06:47:23.821Z,17.95
2018-10-04T06:49:51.338Z,15.28
2018-10-04T06:52:18.946Z,17.32
2018-10-04T06:54:46.462Z,18.50
2018-10-04T06:57:13.953Z,17.95
2018-10-04T06:59:41.501Z,18.98
2018-10-04T07:02:09.130Z,18.90
2018-10-04T07:04:36.696Z,18.12
2018-10-04T07:07:04.234Z,20.37
2018-10-04T07:09:31.805Z,20.65
2018-10-04T07:11:59.322Z,22.25
2018-10-04T07:14:26.933Z,22.37
2018-10-04T07:16:54.458Z,22.82
2018-10-04T07:19:21.974Z,22.05
2018-10-04T07:21:49.627Z,24.27
2018-10-04T07:24:17.234Z,24.55
2018-10-04T07:26:44.830Z,23.65
2018-10-04T07:29:12.411Z,23.90
2018-10-04T07:31:39.990Z,27.10
2018-10-04T07:34:07.564Z,32.70
2018-10-04T07:36:35.095Z,31.93
2018-10-04T07:39:03.107Z,26.95
2018-10-04T07:41:30.676Z,26.93
2018-10-04T07:43:58.298Z,26.25
2018-10-04T07:46:25.889Z,24.95
2018-10-04T07:48:53.406Z,25.52
2018-10-04T07:51:20.908Z,27.00
2018-10-04T07:53:48.493Z,26.12
2018-10-04T07:56:16.027Z,27.70
2018-10-04T07:58:43.618Z,27.17
2018-10-04T08:01:11.174Z,25.68
2018-10-04T08:03:38.749Z,25.48
2018-10-04T08:06:06.475Z,26.20
2018-10-04T08:08:33.946Z,25.12
2018-10-04T08:11:01.534Z,25.20
2018-10-04T08:13:29.009Z,25.97
2018-10-04T08:15:56.667Z,26.42
2018-10-04T08:18:24.215Z,24.15
2018-10-04T08:20:51.844Z,25.05
2018-10-04T08:23:19.402Z,25.95
2018-10-04T08:25:47.209Z,23.95
2018-10-04T08:28:14.858Z,25.15
2018-10-04T08:30:42.476Z,25.75
2018-10-04T08:33:10.026Z,25.88
2018-10-04T08:35:37.690Z,28.67
2018-10-04T08:38:05.304Z,24.75
2018-10-04T08:40:32.925Z,26.33
2018-10-04T08:43:00.816Z,25.00
2018-10-04T08:45:28.477Z,24.27
2018-10-04T08:47:55.998Z,22.30
2018-10-04T08:50:23.544Z,21.65
2018-10-04T08:52:52.993Z,20.65
2018-10-04T08:55:26.475Z,21.10
2018-10-04T08:57:54.604Z,20.30
2018-10-04T09:00:26.171Z,19.77
2018-10-04T09:02:54.483Z,19.02
2018-10-04T09:05:22.413Z,18.95
2018-10-04T09:07:50.065Z,18.15
2018-10-04T09:10:17.572Z,18.52
2018-10-04T09:12:45.269Z,17.17
2018-10-04T09:15:12.762Z,17.12
2018-10-04T09:17:40.277Z,16.27
2018-10-04T09:20:07.943Z,15.35
2018-10-04T09:22:35.607Z,16.42
2018-10-04T09:25:03.320Z,15.30
2018-10-04T09:27:30.890Z,14.85
2018-10-04T09:30:04.626Z,17.48
2018-10-04T09:32:32.236Z,16.20
2018-10-04T09:34:59.850Z,17.52
2018-10-04T09:37:27.410Z,14.38
2018-10-04T09:39:55.053Z,15.68
2018-10-04T09:42:22.648Z,14.30
2018-10-04T09:44:50.281Z,15.58
2018-10-04T09:47:23.452Z,15.00
2018-10-04T09:49:51.145Z,14.87
2018-10-04T09:52:18.648Z,14.73
2018-10-04T09:54:51.955Z,13.95
2018-10-04T09:57:25.127Z,12.20
2018-10-04T09:59:52.793Z,13.43
2018-10-04T10:02:24.288Z,13.60
2018-10-04T10:04:52.105Z,12.93
2018-10-04T10:07:19.967Z,13.18
2018-10-04T10:09:47.554Z,12.15
2018-10-04T10:12:15.147Z,12.10
2018-10-04T10:14:42.740Z,12.13
2018-10-04T10:17:10.465Z,11.05
2018-10-04T10:19:38.002Z,12.82
2018-10-04T10:22:05.645Z,10.50
2018-10-04T10:24:33.210Z,11.70
2018-10-04T10:27:00.953Z,10.25
2018-10-04T10:29:28.521Z,10.30
2018-10-04T10:31:56.080Z,9.25
2018-10-04T10:34:23.717Z,9.73
2018-10-04T10:36:51.213Z,9.10
2018-10-04T10:39:18.808Z,8.38
2018-10-04T10:41:46.360Z,8.33
2018-10-04T10:44:14.037Z,7.72
2018-10-04T10:46:41.551Z,8.95
2018-10-04T10:49:09.148Z,8.33
2018-10-04T10:51:36.710Z,7.40
2018-10-04T10:54:04.345Z,8.20
2018-10-04T10:56:31.914Z,7.42
2018-10-04T10:58:59.466Z,6.65
2018-10-04T11:01:27.016Z,7.03
2018-10-04T11:03:54.605Z,6.30
2018-10-04T11:06:22.224Z,6.05
2018-10-04T11:08:49.757Z,7.75
2018-10-04T11:11:17.352Z,7.50
2018-10-04T11:13:44.871Z,6.80
2018-10-04T11:16:12.450Z,7.58
2018-10-04T11:18:39.995Z,6.60
2018-10-04T11:21:07.587Z,6.42
2018-10-04T11:23:35.148Z,7.37
2018-10-04T11:26:02.668Z,6.22
2018-10-04T11:28:30.512Z,6.75
2018-10-04T11:30:58.027Z,6.85
2018-10-04T11:33:25.609Z,9.50
2018-10-04T11:35:53.175Z,6.87
2018-10-04T11:38:20.833Z,7.45
2018-10-04T11:40:48.411Z,7.50
2018-10-04T11:43:18.735Z,9.10
2018-10-04T11:45:46.365Z,7.05
2018-10-04T11:48:16.702Z,7.25
2018-10-04T11:50:44.293Z,8.05
2018-10-04T11:53:11.938Z,8.28
2018-10-04T11:55:39.514Z,8.15
2018-10-04T11:58:07.939Z,8.00
2018-10-04T12:00:35.521Z,7.95
2018-10-04T12:03:03.715Z,8.10
2018-10-04T12:05:31.398Z,6.25
2018-10-04T12:07:59.001Z,7.35
2018-10-04T12:10:26.566Z,4.95
2018-10-04T12:12:55.117Z,5.95
2018-10-04T12:15:22.685Z,6.08
2018-10-04T12:17:51.637Z,5.85
2018-10-04T12:20:19.226Z,7.70
2018-10-04T12:22:48.213Z,7.05
2018-10-04T12:25:17.212Z,6.20
2018-10-04T12:27:45.629Z,6.35
2018-10-04T12:30:13.245Z,7.80
2018-10-04T12:32:41.474Z,6.75
2018-10-04T12:35:09.089Z,6.70
2018-10-04T12:37:37.591Z,6.45
2018-10-04T12:40:06.809Z,5.97
2018-10-04T12:42:34.981Z,6.75
2018-10-04T12:45:05.510Z,5.83
2018-10-04T12:47:33.043Z,6.03
2018-10-04T12:50:01.539Z,5.15
2018-10-04T12:52:29.283Z,5.87
2018-10-04T12:54:56.773Z,7.03
2018-10-04T12:57:25.009Z,6.22
2018-10-04T12:59:53.997Z,6.12
2018-10-04T13:02:22.258Z,5.53
2018-10-04T13:04:49.791Z,6.05
2018-10-04T13:07:17.400Z,4.40
2018-10-04T13:09:44.895Z,5.20
2018-10-04T13:12:12.931Z,5.22
2018-10-04T13:14:40.530Z,4.90
2018-10-04T13:17:08.182Z,6.03
2018-10-04T13:19:35.783Z,6.15
2018-10-04T13:22:03.298Z,5.47
2018-10-04T13:24:30.930Z,5.00
2018-10-04T13:26:58.446Z,4.47
2018-10-04T13:29:26.026Z,5.10
2018-10-04T13:31:53.541Z,6.95
2018-10-04T13:34:21.194Z,5.45
2018-10-04T13:36:48.723Z,5.92
2018-10-04T13:39:16.305Z,6.12
2018-10-04T13:41:43.818Z,5.05
2018-10-04T13:44:11.469Z,5.30
2018-10-04T13:46:39.018Z,6.03
2018-10-04T13:49:06.566Z,4.90
2018-10-04T13:51:34.167Z,5.45
2018-10-04T13:54:01.889Z,5.45
2018-10-04T13:56:30.562Z,6.25
2018-10-04T13:58:58.056Z,4.40
2018-10-04T14:01:25.613Z,6.00
2018-10-04T14:03:53.154Z,5.40
2018-10-04T14:06:20.893Z,4.40
2018-10-04T14:08:48.333Z,4.70
2018-10-04T14:11:15.974Z,4.72
2018-10-04T14:13:43.512Z,5.75
2018-10-04T14:16:11.143Z,4.70
2018-10-04T14:18:39.011Z,5.03
2018-10-04T14:21:08.129Z,5.83
2018-10-04T14:23:36.854Z,5.33
2018-10-04T14:26:06.410Z,5.42
2018-10-04T14:28:34.034Z,4.87
2018-10-04T14:31:03.580Z,4.87
2018-10-04T14:33:32.567Z,4.75
2018-10-04T14:36:01.430Z,4.92
2018-10-04T14:38:31.093Z,4.60
2018-10-04T14:40:58.627Z,4.90
2018-10-04T14:43:26.289Z,6.03
2018-10-04T14:45:53.912Z,4.92
2018-10-04T14:48:21.438Z,5.85
2018-10-04T14:50:48.961Z,5.45
2018-10-04T14:53:16.513Z,4.58
2018-10-04T14:55:44.109Z,5.70
2018-10-04T14:58:11.765Z,4.83
2018-10-04T15:00:39.377Z,5.97
2018-10-04T15:03:06.917Z,5.50
2018-10-04T15:05:34.516Z,4.50
2018-10-04T15:08:02.062Z,4.80
2018-10-04T15:10:29.658Z,5.08
2018-10-04T15:12:57.179Z,6.33
2018-10-04T15:15:24.814Z,5.53
2018-10-04T15:17:52.332Z,6.17
2018-10-04T15:20:19.999Z,5.40
2018-10-04T15:22:47.710Z,5.22
2018-10-04T15:25:15.369Z,5.78
2018-10-04T15:27:42.938Z,5.42
2018-10-04T15:30:10.546Z,4.90
2018-10-04T15:32:38.193Z,4.28
2018-10-04T15:35:05.763Z,4.45
2018-10-04T15:37:33.443Z,4.50
2018-10-04T15:40:00.903Z,5.40
2018-10-04T15:42:28.553Z,6.20
2018-10-04T15:44:56.879Z,4.55
2018-10-04T15:47:24.475Z,5.00
2018-10-04T15:49:52.027Z,5.00
2018-10-04T15:52:19.621Z,5.05
2018-10-04T15:54:47.872Z,4.70
2018-10-04T15:57:16.074Z,4.58
2018-10-04T15:59:43.567Z,4.35
2018-10-04T16:02:11.123Z,4.62
2018-10-04T16:04:38.638Z,5.85
2018-10-04T16:07:06.239Z,5.72
2018-10-04T16:09:33.746Z,6.85
2018-10-04T16:12:01.412Z,6.35
2018-10-04T16:14:29.742Z,6.33
2018-10-04T16:16:57.225Z,5.55
2018-10-04T16:19:24.796Z,5.58
2018-10-04T16:21:52.310Z,6.35
2018-10-04T16:24:19.987Z,5.90
2018-10-04T16:26:47.485Z,6.60
2018-10-04T16:29:15.107Z,5.85
2018-10-04T16:31:42.646Z,5.30
2018-10-04T16:34:10.249Z,6.97
2018-10-04T16:36:37.733Z,5.78
2018-10-04T16:39:06.744Z,6.25
2018-10-04T16:41:34.326Z,5.42
2018-10-04T16:44:02.012Z,5.80
2018-10-04T16:46:29.586Z,4.50
2018-10-04T16:48:57.878Z,5.10
2018-10-04T16:51:25.479Z,4.75
2018-10-04T16:53:53.975Z,5.00
2018-10-04T16:56:21.614Z,5.22
2018-10-04T16:58:49.158Z,5.78
2018-10-04T17:01:16.784Z,5.72
2018-10-04T17:03:44.371Z,5.08
2018-10-04T17:06:12.089Z,5.25
2018-10-04T17:08:39.657Z,5.20
2018-10-04T17:11:07.236Z,5.87
2018-10-04T17:13:56.164Z,6.75
2018-10-04T17:16:23.883Z,6.40
2018-10-04T17:18:51.543Z,6.00
2018-10-04T17:21:35.907Z,6.00
2018-10-04T17:24:04.825Z,5.37
2018-10-04T17:26:32.697Z,5.28
2018-10-04T17:29:02.199Z,5.70
2018-10-04T17:31:33.608Z,5.50
2018-10-04T17:34:01.488Z,5.72
2018-10-04T17:36:51.466Z,5.25
2018-10-04T17:39:19.159Z,5.33
2018-10-04T17:42:08.240Z,5.67
2018-10-04T17:44:44.032Z,5.03
2018-10-04T17:47:23.306Z,4.80
2018-10-04T17:49:50.823Z,6.33
2018-10-04T17:52:26.788Z,5.60
2018-10-04T17:54:54.357Z,5.47
2018-10-04T17:57:21.978Z,6.22
2018-10-04T17:59:49.749Z,7.10
2018-10-04T18:02:17.451Z,7.20
2018-10-04T18:04:45.033Z,7.08
2018-10-04T18:07:12.804Z,8.40
2018-10-04T18:09:40.500Z,8.78
2018-10-04T18:12:08.327Z,10.45
2018-10-04T18:14:35.972Z,11.30
2018-10-04T18:17:03.861Z,9.00
2018-10-04T18:19:31.356Z,7.58
2018-10-04T18:21:59.339Z,7.40
2018-10-04T18:24:27.826Z,6.50
2018-10-04T18:27:05.379Z,5.35
2018-10-04T18:29:37.470Z,5.30
2018-10-04T18:32:05.331Z,5.65
2018-10-04T18:34:33.191Z,6.30
2018-10-04T18:37:00.947Z,4.92
2018-10-04T18:39:28.804Z,5.17
2018-10-04T18:41:56.654Z,4.75
2018-10-04T18:44:24.476Z,4.87
2018-10-04T18:46:52.373Z,5.55
2018-10-04T18:49:20.097Z,5.10
2018-10-04T18:51:47.796Z,5.00
2018-10-04T18:54:15.595Z,5.25
2018-10-04T18:56:43.363Z,4.70
2018-10-04T18:59:11.308Z,5.20
2018-10-04T19:01:38.878Z,5.03
2018-10-04T19:04:06.675Z,6.35
2018-10-04T19:06:34.548Z,5.80
2018-10-04T19:09:02.430Z,6.72
2018-10-04T19:11:45.936Z,6.25
2018-10-04T19:14:30.128Z,5.33
2018-10-04T19:16:58.910Z,8.18
2018-10-04T19:19:26.510Z,7.70
2018-10-04T19:21:54.181Z,6.53
2018-10-04T19:24:22.575Z,6.70
2018-10-04T19:26:50.306Z,6.00
2018-10-04T19:29:17.929Z,5.70
2018-10-04T19:31:45.469Z,5.85
2018-10-04T19:34:13.060Z,6.20
2018-10-04T19:36:40.650Z,6.10
2018-10-04T19:39:08.379Z,5.65
2018-10-04T19:41:36.021Z,6.80
2018-10-04T19:44:03.790Z,5.83
2018-10-04T19:46:31.385Z,5.75
2018-10-04T19:48:58.962Z,5.78
2018-10-04T19:51:26.510Z,5.90
2018-10-04T19:53:54.103Z,6.17
2018-10-04T19:56:21.690Z,7.67
2018-10-04T20:16:26.844Z,11.12
2018-10-04T20:18:54.391Z,8.00
2018-10-04T20:21:22.018Z,8.40
2018-10-04T20:23:49.536Z,6.78
2018-10-04T20:26:18.430Z,5.97
2018-10-04T20:28:46.219Z,6.80
2018-10-04T20:31:13.846Z,6.50
2018-10-04T20:33:41.490Z,8.15
2018-10-04T20:36:10.021Z,7.70
2018-10-04T20:38:37.572Z,7.40
2018-10-04T20:41:05.218Z,7.33
2018-10-04T20:43:32.967Z,7.50
2018-10-04T20:46:00.950Z,7.10
2018-10-04T20:48:28.566Z,6.60
2018-10-04T20:50:56.103Z,6.85
2018-10-04T20:53:23.785Z,5.75
2018-10-04T20:55:51.366Z,6.53
2018-10-04T20:58:19.103Z,6.87
2018-10-04T21:00:46.651Z,6.67
2018-10-04T21:03:14.251Z,6.58
2018-10-04T21:05:41.801Z,6.20
2018-10-04T21:08:09.375Z,7.22
2018-10-04T21:10:37.053Z,7.83
2018-10-04T21:13:04.757Z,6.10
2018-10-04T21:15:32.266Z,7.40
2018-10-04T21:17:59.893Z,7.10
2018-10-04T21:20:28.043Z,6.05
2018-10-04T21:22:58.033Z,7.08
2018-10-04T21:25:25.561Z,7.03
2018-10-04T21:27:53.135Z,6.75
2018-10-04T21:30:22.315Z,6.37
2018-10-04T21:32:52.042Z,7.22
2018-10-04T21:35:20.615Z,6.78
2018-10-04T21:37:48.901Z,6.62
2018-10-04T21:40:16.542Z,7.30
2018-10-04T21:42:45.896Z,7.70
2018-10-04T21:45:15.250Z,7.08
2018-10-04T21:47:47.737Z,8.53
2018-10-04T21:50:23.601Z,7.70
2018-10-04T21:52:52.637Z,7.92
2018-10-04T21:55:20.775Z,7.85
2018-10-04T21:57:49.442Z,7.15
2018-10-04T22:00:16.864Z,8.03
2018-10-04T22:02:44.407Z,7.72
2018-10-04T22:05:11.902Z,8.05
2018-10-04T22:07:40.685Z,8.63
2018-10-04T22:10:08.378Z,8.28
2018-10-04T22:12:37.827Z,9.10
2018-10-04T22:15:05.382Z,8.20
2018-10-04T22:17:33.900Z,8.15
2018-10-04T22:20:01.943Z,8.30
2018-10-04T22:22:30.402Z,8.15
2018-10-04T22:24:57.881Z,8.55
2018-10-04T22:27:26.287Z,8.50
2018-10-04T22:29:53.810Z,9.73
2018-10-04T22:32:21.295Z,8.33
2018-10-04T22:34:48.824Z,8.80
2018-10-04T22:37:16.289Z,10.03
2018-10-04T22:39:43.830Z,8.88
2018-10-04T22:42:11.358Z,8.95
2018-10-04T22:44:38.915Z,10.30
2018-10-04T22:47:06.389Z,9.73
2018-10-04T22:49:33.811Z,10.40
2018-10-04T22:52:01.447Z,10.55
2018-10-04T22:54:28.882Z,9.95
2018-10-04T22:56:56.414Z,11.08
2018-10-04T22:59:23.851Z,10.18
2018-10-04T23:01:51.483Z,10.43
2018-10-04T23:04:19.651Z,10.60
2018-10-04T23:06:47.250Z,10.28
2018-10-04T23:09:15.443Z,10.53
2018-10-04T23:11:43.009Z,10.00
2018-10-04T23:14:10.497Z,10.78
2018-10-04T23:16:38.106Z,10.38
2018-10-04T23:19:05.596Z,9.25
2018-10-04T23:21:33.161Z,10.15
2018-10-04T23:24:00.787Z,9.75
2018-10-04T23:26:28.288Z,8.90
2018-10-04T23:28:55.856Z,9.00
2018-10-04T23:31:23.355Z,9.95
2018-10-04T23:33:52.122Z,9.33
2018-10-04T23:36:20.324Z,9.30
2018-10-04T23:38:47.924Z,9.63
2018-10-04T23:41:15.511Z,9.60
2018-10-04T23:43:43.623Z,9.00
2018-10-04T23:46:11.186Z,10.08
2018-10-04T23:48:38.694Z,9.68
2018-10-04T23:51:06.758Z,9.53
2018-10-04T23:53:34.270Z,8.98
2018-10-04T23:56:01.995Z,8.93
2018-10-04T23:58:29.797Z,8.58
